sensor_id;sensor_type;location;lat;lon;timestamp;temperature;humidity
13806;DHT22;6974;53.606;9.872;2022-12-10T00:01:26;2.70;99.90
13806;DHT22;6974;53.606;9.872;2022-12-10T00:03:53;2.60;99.90
13806;DHT22;6974;53.606;9.872;2022-12-10T00:06:23;2.60;99.90
13806;DHT22;6974;53.606;9.872;2022-12-10T00:08:51;2.60;99.90
13806;DHT22;6974;53.606;9.872;2022-12-10T00:11:19;2.60;99.90
13806;DHT22;6974;53.606;9.872;2022-12-10T00:13:47;2.70;99.90
13806;DHT22;6974;53.606;9.872;2022-12-10T00:16:16;2.70;99.90
13806;DHT22;6974;53.606;9.872;2022-12-10T00:18:43;2.70;99.90
13806;DHT22;6974;53.606;9.872;2022-12-10T00:21:11;2.70;99.90
13806;DHT22;6974;53.606;9.872;2022-12-10T00:23:40;2.70;99.90
13806;DHT22;6974;53.606;9.872;2022-12-10T00:26:11;2.70;99.90
13806;DHT22;6974;53.606;9.872;2022-12-10T00:28:39;2.70;99.90
13806;DHT22;6974;53.606;9.872;2022-12-10T00:31:09;2.60;99.90
13806;DHT22;6974;53.606;9.872;2022-12-10T00:33:36;2.60;99.90
13806;DHT22;6974;53.606;9.872;2022-12-10T00:36:05;2.60;99.90
13806;DHT22;6974;53.606;9.872;2022-12-10T00:38:32;2.70;99.90
13806;DHT22;6974;53.606;9.872;2022-12-10T00:41:01;2.80;99.90
13806;DHT22;6974;53.606;9.872;2022-12-10T00:43:28;2.70;99.90
13806;DHT22;6974;53.606;9.872;2022-12-10T00:45:55;2.80;99.90
13806;DHT22;6974;53.606;9.872;2022-12-10T00:48:22;2.70;99.90
13806;DHT22;6974;53.606;9.872;2022-12-10T00:50:57;2.70;99.90
13806;DHT22;6974;53.606;9.872;2022-12-10T00:53:24;2.60;99.90
13806;DHT22;6974;53.606;9.872;2022-12-10T00:55:52;2.70;99.90
13806;DHT22;6974;53.606;9.872;2022-12-10T00:58:20;2.70;99.90
13806;DHT22;6974;53.606;9.872;2022-12-10T01:00:48;2.70;99.90
13806;DHT22;6974;53.606;9.872;2022-12-10T01:03:15;2.60;99.90
13806;DHT22;6974;53.606;9.872;2022-12-10T01:05:42;2.60;99.90
13806;DHT22;6974;53.606;9.872;2022-12-10T01:08:09;2.60;99.90
13806;DHT22;6974;53.606;9.872;2022-12-10T01:10:36;2.60;99.90
13806;DHT22;6974;53.606;9.872;2022-12-10T01:13:03;2.60;99.90
13806;DHT22;6974;53.606;9.872;2022-12-10T01:15:31;2.60;99.90
13806;DHT22;6974;53.606;9.872;2022-12-10T01:18:03;2.50;99.90
13806;DHT22;6974;53.606;9.872;2022-12-10T01:20:31;2.50;99.90
13806;DHT22;6974;53.606;9.872;2022-12-10T01:23:00;2.50;99.90
13806;DHT22;6974;53.606;9.872;2022-12-10T01:25:27;2.50;99.90
13806;DHT22;6974;53.606;9.872;2022-12-10T01:27:54;2.50;99.90
13806;DHT22;6974;53.606;9.872;2022-12-10T01:30:20;2.60;99.90
13806;DHT22;6974;53.606;9.872;2022-12-10T01:32:49;2.60;99.90
13806;DHT22;6974;53.606;9.872;2022-12-10T01:35:16;2.60;99.90
13806;DHT22;6974;53.606;9.872;2022-12-10T01:37:42;2.60;99.90
13806;DHT22;6974;53.606;9.872;2022-12-10T01:40:10;2.60;99.90
13806;DHT22;6974;53.606;9.872;2022-12-10T01:42:37;2.50;99.90
13806;DHT22;6974;53.606;9.872;2022-12-10T01:45:09;2.50;99.90
13806;DHT22;6974;53.606;9.872;2022-12-10T01:47:36;2.50;99.90
13806;DHT22;6974;53.606;9.872;2022-12-10T01:50:06;2.60;99.90
13806;DHT22;6974;53.606;9.872;2022-12-10T01:52:34;2.60;99.90
13806;DHT22;6974;53.606;9.872;2022-12-10T01:55:01;2.50;99.90
13806;DHT22;6974;53.606;9.872;2022-12-10T01:57:28;2.50;99.90
13806;DHT22;6974;53.606;9.872;2022-12-10T01:59:58;2.40;99.90
13806;DHT22;6974;53.606;9.872;2022-12-10T02:02:34;2.40;99.90
13806;DHT22;6974;53.606;9.872;2022-12-10T02:05:13;2.50;99.90
13806;DHT22;6974;53.606;9.872;2022-12-10T02:07:55;2.50;99.90
13806;DHT22;6974;53.606;9.872;2022-12-10T02:10:32;2.40;99.90
13806;DHT22;6974;53.606;9.872;2022-12-10T02:13:07;2.30;99.90
13806;DHT22;6974;53.606;9.872;2022-12-10T02:15:39;2.40;99.90
13806;DHT22;6974;53.606;9.872;2022-12-10T02:18:10;2.40;99.90
13806;DHT22;6974;53.606;9.872;2022-12-10T02:20:41;2.50;99.90
13806;DHT22;6974;53.606;9.872;2022-12-10T02:23:11;2.50;99.90
13806;DHT22;6974;53.606;9.872;2022-12-10T02:25:43;2.40;99.90
13806;DHT22;6974;53.606;9.872;2022-12-10T02:28:17;2.40;99.90
13806;DHT22;6974;53.606;9.872;2022-12-10T02:30:49;2.40;99.90
13806;DHT22;6974;53.606;9.872;2022-12-10T02:33:17;2.50;99.90
13806;DHT22;6974;53.606;9.872;2022-12-10T02:35:46;2.50;99.90
13806;DHT22;6974;53.606;9.872;2022-12-10T02:38:17;2.40;99.90
13806;DHT22;6974;53.606;9.872;2022-12-10T02:40:48;2.40;99.90
13806;DHT22;6974;53.606;9.872;2022-12-10T02:43:17;2.50;99.90
13806;DHT22;6974;53.606;9.872;2022-12-10T02:45:44;2.50;99.90
13806;DHT22;6974;53.606;9.872;2022-12-10T02:48:14;2.40;99.90
13806;DHT22;6974;53.606;9.872;2022-12-10T02:50:41;2.40;99.90
13806;DHT22;6974;53.606;9.872;2022-12-10T02:53:07;2.40;99.90
13806;DHT22;6974;53.606;9.872;2022-12-10T02:55:46;2.40;99.90
13806;DHT22;6974;53.606;9.872;2022-12-10T02:58:22;2.40;99.90
13806;DHT22;6974;53.606;9.872;2022-12-10T03:00:58;2.40;99.90
13806;DHT22;6974;53.606;9.872;2022-12-10T03:03:34;2.40;99.90
13806;DHT22;6974;53.606;9.872;2022-12-10T03:06:09;2.40;99.90
13806;DHT22;6974;53.606;9.872;2022-12-10T03:08:41;2.50;99.90
13806;DHT22;6974;53.606;9.872;2022-12-10T03:11:13;2.50;99.90
13806;DHT22;6974;53.606;9.872;2022-12-10T03:13:46;2.60;99.90
13806;DHT22;6974;53.606;9.872;2022-12-10T03:16:15;2.60;99.90
13806;DHT22;6974;53.606;9.872;2022-12-10T03:18:47;2.60;99.90
13806;DHT22;6974;53.606;9.872;2022-12-10T03:21:15;2.50;99.90
13806;DHT22;6974;53.606;9.872;2022-12-10T03:23:46;2.50;99.90
13806;DHT22;6974;53.606;9.872;2022-12-10T03:26:14;2.50;99.90
13806;DHT22;6974;53.606;9.872;2022-12-10T03:28:43;2.60;99.90
13806;DHT22;6974;53.606;9.872;2022-12-10T03:31:13;2.60;99.90
13806;DHT22;6974;53.606;9.872;2022-12-10T03:33:41;2.50;99.90
13806;DHT22;6974;53.606;9.872;2022-12-10T03:36:11;2.50;99.90
13806;DHT22;6974;53.606;9.872;2022-12-10T03:38:39;2.50;99.90
13806;DHT22;6974;53.606;9.872;2022-12-10T03:41:06;2.60;99.90
13806;DHT22;6974;53.606;9.872;2022-12-10T03:43:33;2.60;99.90
13806;DHT22;6974;53.606;9.872;2022-12-10T03:46:00;2.50;99.90
13806;DHT22;6974;53.606;9.872;2022-12-10T03:48:27;2.50;99.90
13806;DHT22;6974;53.606;9.872;2022-12-10T03:50:54;2.50;99.90
13806;DHT22;6974;53.606;9.872;2022-12-10T03:53:22;2.60;99.90
13806;DHT22;6974;53.606;9.872;2022-12-10T03:55:49;2.50;99.90
13806;DHT22;6974;53.606;9.872;2022-12-10T03:58:16;2.50;99.90
13806;DHT22;6974;53.606;9.872;2022-12-10T04:00:43;2.50;99.90
13806;DHT22;6974;53.606;9.872;2022-12-10T04:03:09;2.50;99.90
13806;DHT22;6974;53.606;9.872;2022-12-10T04:05:36;2.50;99.90
13806;DHT22;6974;53.606;9.872;2022-12-10T04:08:04;2.50;99.90
13806;DHT22;6974;53.606;9.872;2022-12-10T04:10:37;2.50;99.90
13806;DHT22;6974;53.606;9.872;2022-12-10T04:13:04;2.50;99.90
13806;DHT22;6974;53.606;9.872;2022-12-10T04:15:48;2.50;99.90
13806;DHT22;6974;53.606;9.872;2022-12-10T04:18:33;2.50;99.90
13806;DHT22;6974;53.606;9.872;2022-12-10T04:20:59;2.50;99.90
13806;DHT22;6974;53.606;9.872;2022-12-10T04:23:44;2.50;99.90
13806;DHT22;6974;53.606;9.872;2022-12-10T04:26:29;2.50;99.90
13806;DHT22;6974;53.606;9.872;2022-12-10T04:29:13;2.50;99.90
13806;DHT22;6974;53.606;9.872;2022-12-10T04:31:40;2.50;99.90
13806;DHT22;6974;53.606;9.872;2022-12-10T04:34:07;2.50;99.90
13806;DHT22;6974;53.606;9.872;2022-12-10T04:36:34;2.50;99.90
13806;DHT22;6974;53.606;9.872;2022-12-10T04:39:01;2.50;99.90
13806;DHT22;6974;53.606;9.872;2022-12-10T04:41:29;2.60;99.90
13806;DHT22;6974;53.606;9.872;2022-12-10T04:43:56;2.60;99.90
13806;DHT22;6974;53.606;9.872;2022-12-10T04:46:23;2.60;99.90
13806;DHT22;6974;53.606;9.872;2022-12-10T04:48:50;2.60;99.90
13806;DHT22;6974;53.606;9.872;2022-12-10T04:51:17;2.60;99.90
13806;DHT22;6974;53.606;9.872;2022-12-10T04:53:43;2.60;99.90
13806;DHT22;6974;53.606;9.872;2022-12-10T04:56:10;2.60;99.90
13806;DHT22;6974;53.606;9.872;2022-12-10T04:58:38;2.60;99.90
13806;DHT22;6974;53.606;9.872;2022-12-10T05:01:07;2.60;99.90
13806;DHT22;6974;53.606;9.872;2022-12-10T05:03:35;2.60;99.90
13806;DHT22;6974;53.606;9.872;2022-12-10T05:06:03;2.60;99.90
13806;DHT22;6974;53.606;9.872;2022-12-10T05:08:30;2.60;99.90
13806;DHT22;6974;53.606;9.872;2022-12-10T05:11:00;2.70;99.90
13806;DHT22;6974;53.606;9.872;2022-12-10T05:13:28;2.70;99.90
13806;DHT22;6974;53.606;9.872;2022-12-10T05:15:56;2.70;99.90
13806;DHT22;6974;53.606;9.872;2022-12-10T05:18:24;2.70;99.90
13806;DHT22;6974;53.606;9.872;2022-12-10T05:20:51;2.70;99.90
13806;DHT22;6974;53.606;9.872;2022-12-10T05:23:18;2.80;99.90
13806;DHT22;6974;53.606;9.872;2022-12-10T05:26:00;2.80;99.90
13806;DHT22;6974;53.606;9.872;2022-12-10T05:28:28;2.80;99.90
13806;DHT22;6974;53.606;9.872;2022-12-10T05:30:57;2.70;99.90
13806;DHT22;6974;53.606;9.872;2022-12-10T05:33:24;2.80;99.90
13806;DHT22;6974;53.606;9.872;2022-12-10T05:35:53;2.70;99.90
13806;DHT22;6974;53.606;9.872;2022-12-10T05:38:20;2.70;99.90
13806;DHT22;6974;53.606;9.872;2022-12-10T05:40:47;2.70;99.90
13806;DHT22;6974;53.606;9.872;2022-12-10T05:43:14;2.80;99.90
13806;DHT22;6974;53.606;9.872;2022-12-10T05:45:41;2.80;99.90
13806;DHT22;6974;53.606;9.872;2022-12-10T05:48:11;2.70;99.90
13806;DHT22;6974;53.606;9.872;2022-12-10T05:50:38;2.70;99.90
13806;DHT22;6974;53.606;9.872;2022-12-10T05:53:05;2.70;99.90
13806;DHT22;6974;53.606;9.872;2022-12-10T05:55:32;2.70;99.90
13806;DHT22;6974;53.606;9.872;2022-12-10T05:57:59;2.70;99.90
13806;DHT22;6974;53.606;9.872;2022-12-10T06:00:27;2.60;99.90
13806;DHT22;6974;53.606;9.872;2022-12-10T06:02:54;2.60;99.90
13806;DHT22;6974;53.606;9.872;2022-12-10T06:05:22;2.60;99.90
13806;DHT22;6974;53.606;9.872;2022-12-10T06:07:49;2.60;99.90
13806;DHT22;6974;53.606;9.872;2022-12-10T06:10:16;2.60;99.90
13806;DHT22;6974;53.606;9.872;2022-12-10T06:12:43;2.60;99.90
13806;DHT22;6974;53.606;9.872;2022-12-10T06:15:10;2.60;99.90
13806;DHT22;6974;53.606;9.872;2022-12-10T06:17:37;2.60;99.90
13806;DHT22;6974;53.606;9.872;2022-12-10T06:20:04;2.70;99.90
13806;DHT22;6974;53.606;9.872;2022-12-10T06:22:33;2.70;99.90
13806;DHT22;6974;53.606;9.872;2022-12-10T06:25:00;2.60;99.90
13806;DHT22;6974;53.606;9.872;2022-12-10T06:27:29;2.70;99.90
13806;DHT22;6974;53.606;9.872;2022-12-10T06:29:56;2.60;99.90
13806;DHT22;6974;53.606;9.872;2022-12-10T06:32:23;2.60;99.90
13806;DHT22;6974;53.606;9.872;2022-12-10T06:34:50;2.60;99.90
13806;DHT22;6974;53.606;9.872;2022-12-10T06:37:17;2.60;99.90
13806;DHT22;6974;53.606;9.872;2022-12-10T06:39:45;2.60;99.90
13806;DHT22;6974;53.606;9.872;2022-12-10T06:42:12;2.60;99.90
13806;DHT22;6974;53.606;9.872;2022-12-10T06:44:39;2.60;99.90
13806;DHT22;6974;53.606;9.872;2022-12-10T06:47:06;2.50;99.90
13806;DHT22;6974;53.606;9.872;2022-12-10T06:49:33;2.60;99.90
13806;DHT22;6974;53.606;9.872;2022-12-10T06:52:00;2.60;99.90
13806;DHT22;6974;53.606;9.872;2022-12-10T06:54:26;2.60;99.90
13806;DHT22;6974;53.606;9.872;2022-12-10T06:56:55;2.70;99.90
13806;DHT22;6974;53.606;9.872;2022-12-10T06:59:22;2.70;99.90
13806;DHT22;6974;53.606;9.872;2022-12-10T07:01:49;2.70;99.90
13806;DHT22;6974;53.606;9.872;2022-12-10T07:04:16;2.70;99.90
13806;DHT22;6974;53.606;9.872;2022-12-10T07:06:43;2.70;99.90
13806;DHT22;6974;53.606;9.872;2022-12-10T07:09:10;2.60;99.90
13806;DHT22;6974;53.606;9.872;2022-12-10T07:11:37;2.60;99.90
13806;DHT22;6974;53.606;9.872;2022-12-10T07:14:05;2.60;99.90
13806;DHT22;6974;53.606;9.872;2022-12-10T07:16:33;2.60;99.90
13806;DHT22;6974;53.606;9.872;2022-12-10T07:19:01;2.50;99.90
13806;DHT22;6974;53.606;9.872;2022-12-10T07:21:31;2.60;99.90
13806;DHT22;6974;53.606;9.872;2022-12-10T07:24:00;2.60;99.90
13806;DHT22;6974;53.606;9.872;2022-12-10T07:26:29;2.60;99.90
13806;DHT22;6974;53.606;9.872;2022-12-10T07:28:57;2.60;99.90
13806;DHT22;6974;53.606;9.872;2022-12-10T07:31:26;2.50;99.90
13806;DHT22;6974;53.606;9.872;2022-12-10T07:33:54;2.60;99.90
13806;DHT22;6974;53.606;9.872;2022-12-10T07:36:22;2.60;99.90
13806;DHT22;6974;53.606;9.872;2022-12-10T07:38:50;2.60;99.90
13806;DHT22;6974;53.606;9.872;2022-12-10T07:41:17;2.60;99.90
13806;DHT22;6974;53.606;9.872;2022-12-10T07:43:45;2.60;99.90
13806;DHT22;6974;53.606;9.872;2022-12-10T07:46:14;2.60;99.90
13806;DHT22;6974;53.606;9.872;2022-12-10T07:48:46;2.60;99.90
13806;DHT22;6974;53.606;9.872;2022-12-10T07:51:14;2.60;99.90
13806;DHT22;6974;53.606;9.872;2022-12-10T07:53:41;2.60;99.90
13806;DHT22;6974;53.606;9.872;2022-12-10T07:56:09;2.60;99.90
13806;DHT22;6974;53.606;9.872;2022-12-10T07:58:36;2.50;99.90
13806;DHT22;6974;53.606;9.872;2022-12-10T08:01:07;2.40;99.90
13806;DHT22;6974;53.606;9.872;2022-12-10T08:03:34;2.40;99.90
13806;DHT22;6974;53.606;9.872;2022-12-10T08:06:03;2.40;99.90
13806;DHT22;6974;53.606;9.872;2022-12-10T08:08:32;2.40;99.90
13806;DHT22;6974;53.606;9.872;2022-12-10T08:10:59;2.50;99.90
13806;DHT22;6974;53.606;9.872;2022-12-10T08:13:26;2.40;99.90
13806;DHT22;6974;53.606;9.872;2022-12-10T08:15:53;2.40;99.90
13806;DHT22;6974;53.606;9.872;2022-12-10T08:18:20;2.40;99.90
13806;DHT22;6974;53.606;9.872;2022-12-10T08:20:47;2.40;99.90
13806;DHT22;6974;53.606;9.872;2022-12-10T08:23:15;2.40;99.90
13806;DHT22;6974;53.606;9.872;2022-12-10T08:25:42;2.40;99.90
13806;DHT22;6974;53.606;9.872;2022-12-10T08:28:09;2.40;99.90
13806;DHT22;6974;53.606;9.872;2022-12-10T08:30:36;2.40;99.90
13806;DHT22;6974;53.606;9.872;2022-12-10T08:33:03;2.30;99.90
13806;DHT22;6974;53.606;9.872;2022-12-10T08:35:30;2.30;99.90
13806;DHT22;6974;53.606;9.872;2022-12-10T08:37:57;2.30;99.90
13806;DHT22;6974;53.606;9.872;2022-12-10T08:40:25;2.20;99.90
13806;DHT22;6974;53.606;9.872;2022-12-10T08:42:52;2.20;99.90
13806;DHT22;6974;53.606;9.872;2022-12-10T08:45:18;2.30;99.90
13806;DHT22;6974;53.606;9.872;2022-12-10T08:47:45;2.30;99.90
13806;DHT22;6974;53.606;9.872;2022-12-10T08:50:12;2.30;99.90
13806;DHT22;6974;53.606;9.872;2022-12-10T08:52:39;2.30;99.90
13806;DHT22;6974;53.606;9.872;2022-12-10T08:55:07;2.40;99.90
13806;DHT22;6974;53.606;9.872;2022-12-10T08:57:36;2.40;99.90
13806;DHT22;6974;53.606;9.872;2022-12-10T09:00:04;2.40;99.90
13806;DHT22;6974;53.606;9.872;2022-12-10T09:02:31;2.40;99.90
13806;DHT22;6974;53.606;9.872;2022-12-10T09:04:58;2.40;99.90
13806;DHT22;6974;53.606;9.872;2022-12-10T09:07:26;2.40;99.90
13806;DHT22;6974;53.606;9.872;2022-12-10T09:09:54;2.30;99.90
13806;DHT22;6974;53.606;9.872;2022-12-10T09:12:21;2.30;99.90
13806;DHT22;6974;53.606;9.872;2022-12-10T09:14:49;2.20;99.90
13806;DHT22;6974;53.606;9.872;2022-12-10T09:17:16;2.30;99.90
13806;DHT22;6974;53.606;9.872;2022-12-10T09:19:43;2.20;99.90
13806;DHT22;6974;53.606;9.872;2022-12-10T09:22:10;2.30;99.90
13806;DHT22;6974;53.606;9.872;2022-12-10T09:24:37;2.20;99.90
13806;DHT22;6974;53.606;9.872;2022-12-10T09:27:03;2.30;99.90
13806;DHT22;6974;53.606;9.872;2022-12-10T09:29:30;2.30;99.90
13806;DHT22;6974;53.606;9.872;2022-12-10T09:31:58;2.20;99.90
13806;DHT22;6974;53.606;9.872;2022-12-10T09:34:25;2.20;99.90
13806;DHT22;6974;53.606;9.872;2022-12-10T09:36:52;2.10;99.90
13806;DHT22;6974;53.606;9.872;2022-12-10T09:39:19;2.20;99.90
13806;DHT22;6974;53.606;9.872;2022-12-10T09:42:13;2.20;99.90
13806;DHT22;6974;53.606;9.872;2022-12-10T09:44:52;2.20;99.90
13806;DHT22;6974;53.606;9.872;2022-12-10T09:47:25;2.20;99.90
13806;DHT22;6974;53.606;9.872;2022-12-10T09:49:58;2.30;99.90
13806;DHT22;6974;53.606;9.872;2022-12-10T09:52:33;2.30;99.90
13806;DHT22;6974;53.606;9.872;2022-12-10T09:55:05;2.20;99.90
13806;DHT22;6974;53.606;9.872;2022-12-10T09:57:40;2.20;99.90
13806;DHT22;6974;53.606;9.872;2022-12-10T10:00:21;2.20;99.90
13806;DHT22;6974;53.606;9.872;2022-12-10T10:02:51;2.20;99.90
13806;DHT22;6974;53.606;9.872;2022-12-10T10:05:21;2.20;99.90
13806;DHT22;6974;53.606;9.872;2022-12-10T10:07:52;2.20;99.90
13806;DHT22;6974;53.606;9.872;2022-12-10T10:10:25;2.20;99.90
13806;DHT22;6974;53.606;9.872;2022-12-10T10:12:54;2.20;99.90
13806;DHT22;6974;53.606;9.872;2022-12-10T10:15:26;2.20;99.90
13806;DHT22;6974;53.606;9.872;2022-12-10T10:17:59;2.20;99.90
13806;DHT22;6974;53.606;9.872;2022-12-10T10:20:29;2.20;99.90
13806;DHT22;6974;53.606;9.872;2022-12-10T10:22:57;2.20;99.90
13806;DHT22;6974;53.606;9.872;2022-12-10T10:25:25;2.20;99.90
13806;DHT22;6974;53.606;9.872;2022-12-10T10:27:52;2.20;99.90
13806;DHT22;6974;53.606;9.872;2022-12-10T10:30:21;2.20;99.90
13806;DHT22;6974;53.606;9.872;2022-12-10T10:32:51;2.20;99.90
13806;DHT22;6974;53.606;9.872;2022-12-10T10:35:28;2.30;99.90
13806;DHT22;6974;53.606;9.872;2022-12-10T10:38:00;2.20;99.90
13806;DHT22;6974;53.606;9.872;2022-12-10T10:40:30;2.30;99.90
13806;DHT22;6974;53.606;9.872;2022-12-10T10:42:59;2.30;99.90
13806;DHT22;6974;53.606;9.872;2022-12-10T10:45:39;2.20;99.90
13806;DHT22;6974;53.606;9.872;2022-12-10T10:48:11;2.20;99.90
13806;DHT22;6974;53.606;9.872;2022-12-10T10:50:42;2.20;99.90
13806;DHT22;6974;53.606;9.872;2022-12-10T10:53:30;2.30;99.90
13806;DHT22;6974;53.606;9.872;2022-12-10T10:56:03;2.30;99.90
13806;DHT22;6974;53.606;9.872;2022-12-10T10:58:33;2.30;99.90
13806;DHT22;6974;53.606;9.872;2022-12-10T11:01:02;2.30;99.90
13806;DHT22;6974;53.606;9.872;2022-12-10T11:03:32;2.30;99.90
13806;DHT22;6974;53.606;9.872;2022-12-10T11:06:04;2.30;99.90
13806;DHT22;6974;53.606;9.872;2022-12-10T11:08:31;2.20;99.90
13806;DHT22;6974;53.606;9.872;2022-12-10T11:11:03;2.30;99.90
13806;DHT22;6974;53.606;9.872;2022-12-10T11:13:33;2.30;99.90
13806;DHT22;6974;53.606;9.872;2022-12-10T11:16:09;2.30;99.90
13806;DHT22;6974;53.606;9.872;2022-12-10T11:18:39;2.30;99.90
13806;DHT22;6974;53.606;9.872;2022-12-10T11:21:17;2.30;99.90
13806;DHT22;6974;53.606;9.872;2022-12-10T11:23:45;2.30;99.90
13806;DHT22;6974;53.606;9.872;2022-12-10T11:26:26;2.20;99.90
13806;DHT22;6974;53.606;9.872;2022-12-10T11:29:10;2.20;99.90
13806;DHT22;6974;53.606;9.872;2022-12-10T11:31:52;2.20;99.90
13806;DHT22;6974;53.606;9.872;2022-12-10T11:34:30;2.20;99.90
13806;DHT22;6974;53.606;9.872;2022-12-10T11:37:09;2.10;99.90
13806;DHT22;6974;53.606;9.872;2022-12-10T11:39:59;2.20;99.90
13806;DHT22;6974;53.606;9.872;2022-12-10T11:42:38;2.30;99.90
13806;DHT22;6974;53.606;9.872;2022-12-10T11:45:13;2.20;99.90
13806;DHT22;6974;53.606;9.872;2022-12-10T11:47:53;2.30;99.90
13806;DHT22;6974;53.606;9.872;2022-12-10T11:50:27;2.30;99.90
13806;DHT22;6974;53.606;9.872;2022-12-10T11:53:23;2.20;99.90
13806;DHT22;6974;53.606;9.872;2022-12-10T11:55:59;2.20;99.90
13806;DHT22;6974;53.606;9.872;2022-12-10T11:58:45;2.30;99.90
13806;DHT22;6974;53.606;9.872;2022-12-10T12:01:23;2.30;99.90
13806;DHT22;6974;53.606;9.872;2022-12-10T12:04:10;2.20;99.90
13806;DHT22;6974;53.606;9.872;2022-12-10T12:06:54;2.10;99.90
13806;DHT22;6974;53.606;9.872;2022-12-10T12:09:32;2.20;99.90
13806;DHT22;6974;53.606;9.872;2022-12-10T12:12:10;2.20;99.90
13806;DHT22;6974;53.606;9.872;2022-12-10T12:14:42;2.20;99.90
13806;DHT22;6974;53.606;9.872;2022-12-10T12:17:13;2.20;99.90
13806;DHT22;6974;53.606;9.872;2022-12-10T12:19:45;2.10;99.90
13806;DHT22;6974;53.606;9.872;2022-12-10T12:22:16;2.10;99.90
13806;DHT22;6974;53.606;9.872;2022-12-10T12:24:53;2.10;99.90
13806;DHT22;6974;53.606;9.872;2022-12-10T12:27:25;2.10;99.90
13806;DHT22;6974;53.606;9.872;2022-12-10T12:30:06;2.10;99.90
13806;DHT22;6974;53.606;9.872;2022-12-10T12:32:46;2.20;99.90
13806;DHT22;6974;53.606;9.872;2022-12-10T12:35:19;2.20;99.90
13806;DHT22;6974;53.606;9.872;2022-12-10T12:37:50;2.30;99.90
13806;DHT22;6974;53.606;9.872;2022-12-10T12:40:27;2.30;99.90
13806;DHT22;6974;53.606;9.872;2022-12-10T12:42:58;2.30;99.90
13806;DHT22;6974;53.606;9.872;2022-12-10T12:45:35;2.20;99.90
13806;DHT22;6974;53.606;9.872;2022-12-10T12:48:12;2.30;99.90
13806;DHT22;6974;53.606;9.872;2022-12-10T12:50:43;2.20;99.90
13806;DHT22;6974;53.606;9.872;2022-12-10T12:53:13;2.30;99.90
13806;DHT22;6974;53.606;9.872;2022-12-10T12:55:51;2.30;99.90
13806;DHT22;6974;53.606;9.872;2022-12-10T12:58:30;2.30;99.90
13806;DHT22;6974;53.606;9.872;2022-12-10T13:01:03;2.20;99.90
13806;DHT22;6974;53.606;9.872;2022-12-10T13:03:35;2.20;99.90
13806;DHT22;6974;53.606;9.872;2022-12-10T13:06:19;2.10;99.90
13806;DHT22;6974;53.606;9.872;2022-12-10T13:08:49;2.10;99.90
13806;DHT22;6974;53.606;9.872;2022-12-10T13:11:34;2.20;99.90
13806;DHT22;6974;53.606;9.872;2022-12-10T13:14:16;2.20;99.90
13806;DHT22;6974;53.606;9.872;2022-12-10T13:16:58;2.20;99.90
13806;DHT22;6974;53.606;9.872;2022-12-10T13:19:29;2.20;99.90
13806;DHT22;6974;53.606;9.872;2022-12-10T13:21:58;2.30;99.90
13806;DHT22;6974;53.606;9.872;2022-12-10T13:24:58;2.20;99.90
13806;DHT22;6974;53.606;9.872;2022-12-10T13:27:31;2.20;99.90
13806;DHT22;6974;53.606;9.872;2022-12-10T13:30:01;2.20;99.90
13806;DHT22;6974;53.606;9.872;2022-12-10T13:32:45;2.20;99.90
13806;DHT22;6974;53.606;9.872;2022-12-10T13:35:25;2.20;99.90
13806;DHT22;6974;53.606;9.872;2022-12-10T13:38:02;2.20;99.90
13806;DHT22;6974;53.606;9.872;2022-12-10T13:40:40;2.20;99.90
13806;DHT22;6974;53.606;9.872;2022-12-10T13:43:28;2.10;99.90
13806;DHT22;6974;53.606;9.872;2022-12-10T13:46:24;2.10;99.90
13806;DHT22;6974;53.606;9.872;2022-12-10T13:48:53;2.20;99.90
13806;DHT22;6974;53.606;9.872;2022-12-10T13:51:46;2.20;99.90
13806;DHT22;6974;53.606;9.872;2022-12-10T13:54:44;2.20;99.90
13806;DHT22;6974;53.606;9.872;2022-12-10T13:57:26;2.30;99.90
13806;DHT22;6974;53.606;9.872;2022-12-10T14:00:06;2.30;99.90
13806;DHT22;6974;53.606;9.872;2022-12-10T14:02:45;2.30;99.90
13806;DHT22;6974;53.606;9.872;2022-12-10T14:05:26;2.30;99.90
13806;DHT22;6974;53.606;9.872;2022-12-10T14:07:56;2.30;99.90
13806;DHT22;6974;53.606;9.872;2022-12-10T14:10:30;2.30;99.90
13806;DHT22;6974;53.606;9.872;2022-12-10T14:12:58;2.30;99.90
13806;DHT22;6974;53.606;9.872;2022-12-10T14:15:27;2.20;99.90
13806;DHT22;6974;53.606;9.872;2022-12-10T14:18:00;2.20;99.90
13806;DHT22;6974;53.606;9.872;2022-12-10T14:20:30;2.20;99.90
13806;DHT22;6974;53.606;9.872;2022-12-10T14:23:03;2.20;99.90
13806;DHT22;6974;53.606;9.872;2022-12-10T14:25:45;2.20;99.90
13806;DHT22;6974;53.606;9.872;2022-12-10T14:28:14;2.20;99.90
13806;DHT22;6974;53.606;9.872;2022-12-10T14:30:45;2.10;99.90
13806;DHT22;6974;53.606;9.872;2022-12-10T14:33:16;2.10;99.90
13806;DHT22;6974;53.606;9.872;2022-12-10T14:35:46;2.10;99.90
13806;DHT22;6974;53.606;9.872;2022-12-10T14:38:17;2.00;99.90
13806;DHT22;6974;53.606;9.872;2022-12-10T14:40:45;2.10;99.90
13806;DHT22;6974;53.606;9.872;2022-12-10T14:43:15;2.10;99.90
13806;DHT22;6974;53.606;9.872;2022-12-10T14:45:47;2.10;99.90
13806;DHT22;6974;53.606;9.872;2022-12-10T14:48:17;2.00;99.90
13806;DHT22;6974;53.606;9.872;2022-12-10T14:50:45;2.10;99.90
13806;DHT22;6974;53.606;9.872;2022-12-10T14:53:15;2.00;99.90
13806;DHT22;6974;53.606;9.872;2022-12-10T14:55:43;2.00;99.90
13806;DHT22;6974;53.606;9.872;2022-12-10T14:58:15;1.90;99.90
13806;DHT22;6974;53.606;9.872;2022-12-10T15:00:45;2.00;99.90
13806;DHT22;6974;53.606;9.872;2022-12-10T15:03:27;1.90;99.90
13806;DHT22;6974;53.606;9.872;2022-12-10T15:05:55;2.00;99.90
13806;DHT22;6974;53.606;9.872;2022-12-10T15:08:23;2.00;99.90
13806;DHT22;6974;53.606;9.872;2022-12-10T15:10:54;2.00;99.90
13806;DHT22;6974;53.606;9.872;2022-12-10T15:13:24;2.00;99.90
13806;DHT22;6974;53.606;9.872;2022-12-10T15:15:55;2.00;99.90
13806;DHT22;6974;53.606;9.872;2022-12-10T15:18:27;2.00;99.90
13806;DHT22;6974;53.606;9.872;2022-12-10T15:21:04;2.00;99.90
13806;DHT22;6974;53.606;9.872;2022-12-10T15:23:33;2.00;99.90
13806;DHT22;6974;53.606;9.872;2022-12-10T15:26:04;2.10;99.90
13806;DHT22;6974;53.606;9.872;2022-12-10T15:28:37;2.00;99.90
13806;DHT22;6974;53.606;9.872;2022-12-10T15:31:15;2.10;99.90
13806;DHT22;6974;53.606;9.872;2022-12-10T15:33:47;2.10;99.90
13806;DHT22;6974;53.606;9.872;2022-12-10T15:36:19;2.00;99.90
13806;DHT22;6974;53.606;9.872;2022-12-10T15:38:47;2.10;99.90
13806;DHT22;6974;53.606;9.872;2022-12-10T15:41:31;2.10;99.90
13806;DHT22;6974;53.606;9.872;2022-12-10T15:44:01;2.10;99.90
13806;DHT22;6974;53.606;9.872;2022-12-10T15:46:30;2.10;99.90
13806;DHT22;6974;53.606;9.872;2022-12-10T15:48:57;2.10;99.90
13806;DHT22;6974;53.606;9.872;2022-12-10T15:51:25;2.10;99.90
13806;DHT22;6974;53.606;9.872;2022-12-10T15:53:52;2.10;99.90
13806;DHT22;6974;53.606;9.872;2022-12-10T15:56:19;2.00;99.90
13806;DHT22;6974;53.606;9.872;2022-12-10T15:58:46;2.00;99.90
13806;DHT22;6974;53.606;9.872;2022-12-10T16:01:13;2.00;99.90
13806;DHT22;6974;53.606;9.872;2022-12-10T16:03:42;2.00;99.90
13806;DHT22;6974;53.606;9.872;2022-12-10T16:06:10;2.00;99.90
13806;DHT22;6974;53.606;9.872;2022-12-10T16:08:36;2.10;99.90
13806;DHT22;6974;53.606;9.872;2022-12-10T16:11:12;2.10;99.90
13806;DHT22;6974;53.606;9.872;2022-12-10T16:13:47;2.00;99.90
13806;DHT22;6974;53.606;9.872;2022-12-10T16:16:15;2.00;99.90
13806;DHT22;6974;53.606;9.872;2022-12-10T16:18:44;2.00;99.90
13806;DHT22;6974;53.606;9.872;2022-12-10T16:21:11;2.00;99.90
13806;DHT22;6974;53.606;9.872;2022-12-10T16:23:38;2.00;99.90
13806;DHT22;6974;53.606;9.872;2022-12-10T16:26:13;2.10;99.90